sensor_id;sensor_type;location;lat;lon;timestamp;P1;durP1;ratioP1;P2;durP2;ratioP2
78752;SDS011;68072;51.688;7.842;2023-03-21T00:00:52;11.60;;;5.80;;
78752;SDS011;68072;51.688;7.842;2023-03-21T00:03:19;16.95;;;6.43;;
78752;SDS011;68072;51.688;7.842;2023-03-21T00:05:44;13.52;;;6.15;;
78752;SDS011;68072;51.688;7.842;2023-03-21T00:08:13;12.73;;;5.10;;
78752;SDS011;68072;51.688;7.842;2023-03-21T00:10:39;9.65;;;5.10;;
78752;SDS011;68072;51.688;7.842;2023-03-21T00:13:05;12.80;;;5.65;;
78752;SDS011;68072;51.688;7.842;2023-03-21T00:15:30;17.80;;;6.10;;
78752;SDS011;68072;51.688;7.842;2023-03-21T00:17:56;7.13;;;3.90;;
78752;SDS011;68072;51.688;7.842;2023-03-21T00:20:32;13.80;;;7.32;;
78752;SDS011;68072;51.688;7.842;2023-03-21T00:23:01;11.68;;;6.20;;
78752;SDS011;68072;51.688;7.842;2023-03-21T00:25:27;11.32;;;6.00;;
78752;SDS011;68072;51.688;7.842;2023-03-21T00:27:53;15.85;;;6.75;;
78752;SDS011;68072;51.688;7.842;2023-03-21T00:30:18;12.27;;;6.03;;
78752;SDS011;68072;51.688;7.842;2023-03-21T00:32:45;13.75;;;6.82;;
78752;SDS011;68072;51.688;7.842;2023-03-21T00:35:10;12.65;;;5.95;;
78752;SDS011;68072;51.688;7.842;2023-03-21T00:37:36;12.20;;;6.28;;
78752;SDS011;68072;51.688;7.842;2023-03-21T00:40:01;14.73;;;6.90;;
78752;SDS011;68072;51.688;7.842;2023-03-21T00:42:33;12.55;;;6.45;;
78752;SDS011;68072;51.688;7.842;2023-03-21T00:44:58;11.95;;;5.90;;
78752;SDS011;68072;51.688;7.842;2023-03-21T00:47:23;12.20;;;6.18;;
78752;SDS011;68072;51.688;7.842;2023-03-21T00:49:49;16.75;;;6.28;;
78752;SDS011;68072;51.688;7.842;2023-03-21T00:52:14;16.67;;;6.18;;
78752;SDS011;68072;51.688;7.842;2023-03-21T00:54:40;16.67;;;6.82;;
78752;SDS011;68072;51.688;7.842;2023-03-21T00:57:05;14.55;;;6.40;;
78752;SDS011;68072;51.688;7.842;2023-03-21T00:59:31;16.20;;;6.45;;
78752;SDS011;68072;51.688;7.842;2023-03-21T01:01:56;13.40;;;6.50;;
78752;SDS011;68072;51.688;7.842;2023-03-21T01:04:24;16.58;;;6.43;;
78752;SDS011;68072;51.688;7.842;2023-03-21T01:06:51;17.90;;;6.57;;
78752;SDS011;68072;51.688;7.842;2023-03-21T01:11:44;12.90;;;6.10;;
78752;SDS011;68072;51.688;7.842;2023-03-21T01:14:10;17.30;;;6.82;;
78752;SDS011;68072;51.688;7.842;2023-03-21T01:16:37;16.65;;;6.85;;
78752;SDS011;68072;51.688;7.842;2023-03-21T01:19:02;14.77;;;5.68;;
78752;SDS011;68072;51.688;7.842;2023-03-21T01:21:29;12.07;;;6.18;;
78752;SDS011;68072;51.688;7.842;2023-03-21T01:23:55;18.38;;;6.18;;
78752;SDS011;68072;51.688;7.842;2023-03-21T01:26:21;12.68;;;5.45;;
78752;SDS011;68072;51.688;7.842;2023-03-21T01:28:46;12.52;;;6.00;;
78752;SDS011;68072;51.688;7.842;2023-03-21T01:31:13;10.93;;;5.55;;
78752;SDS011;68072;51.688;7.842;2023-03-21T01:33:39;13.15;;;6.03;;
78752;SDS011;68072;51.688;7.842;2023-03-21T01:36:05;12.98;;;6.05;;
78752;SDS011;68072;51.688;7.842;2023-03-21T01:38:31;14.05;;;6.07;;
78752;SDS011;68072;51.688;7.842;2023-03-21T01:40:58;15.18;;;6.15;;
78752;SDS011;68072;51.688;7.842;2023-03-21T01:43:30;14.50;;;5.95;;
78752;SDS011;68072;51.688;7.842;2023-03-21T01:46:09;11.48;;;5.70;;
78752;SDS011;68072;51.688;7.842;2023-03-21T01:49:08;14.02;;;5.35;;
78752;SDS011;68072;51.688;7.842;2023-03-21T01:51:52;17.10;;;5.05;;
78752;SDS011;68072;51.688;7.842;2023-03-21T01:54:22;15.25;;;5.18;;
78752;SDS011;68072;51.688;7.842;2023-03-21T01:56:50;15.80;;;5.30;;
78752;SDS011;68072;51.688;7.842;2023-03-21T01:59:19;15.43;;;5.35;;
78752;SDS011;68072;51.688;7.842;2023-03-21T02:01:47;12.95;;;5.68;;
78752;SDS011;68072;51.688;7.842;2023-03-21T02:04:13;11.43;;;5.85;;
78752;SDS011;68072;51.688;7.842;2023-03-21T02:06:47;13.90;;;5.50;;
78752;SDS011;68072;51.688;7.842;2023-03-21T02:09:15;15.77;;;5.28;;
78752;SDS011;68072;51.688;7.842;2023-03-21T02:11:43;15.45;;;5.07;;
78752;SDS011;68072;51.688;7.842;2023-03-21T02:14:11;13.15;;;5.40;;
78752;SDS011;68072;51.688;7.842;2023-03-21T02:16:42;10.73;;;5.05;;
78752;SDS011;68072;51.688;7.842;2023-03-21T02:27:49;13.18;;;5.10;;
78752;SDS011;68072;51.688;7.842;2023-03-21T02:41:05;10.35;;;4.88;;
78752;SDS011;68072;51.688;7.842;2023-03-21T02:43:43;15.07;;;5.10;;
78752;SDS011;68072;51.688;7.842;2023-03-21T02:46:15;10.65;;;4.82;;
78752;SDS011;68072;51.688;7.842;2023-03-21T02:48:57;11.10;;;4.72;;
78752;SDS011;68072;51.688;7.842;2023-03-21T02:51:27;12.80;;;5.15;;
78752;SDS011;68072;51.688;7.842;2023-03-21T02:54:00;10.68;;;5.18;;
78752;SDS011;68072;51.688;7.842;2023-03-21T02:58:53;11.43;;;4.90;;
78752;SDS011;68072;51.688;7.842;2023-03-21T03:01:18;11.30;;;4.75;;
78752;SDS011;68072;51.688;7.842;2023-03-21T03:03:44;11.35;;;4.78;;
78752;SDS011;68072;51.688;7.842;2023-03-21T03:06:20;13.80;;;4.75;;
78752;SDS011;68072;51.688;7.842;2023-03-21T03:08:56;13.93;;;5.35;;
78752;SDS011;68072;51.688;7.842;2023-03-21T03:11:32;17.60;;;6.05;;
78752;SDS011;68072;51.688;7.842;2023-03-21T03:14:08;11.43;;;4.90;;
78752;SDS011;68072;51.688;7.842;2023-03-21T03:19:57;16.15;;;5.55;;
78752;SDS011;68072;51.688;7.842;2023-03-21T03:22:40;11.25;;;5.95;;
78752;SDS011;68072;51.688;7.842;2023-03-21T03:25:11;12.18;;;5.90;;
78752;SDS011;68072;51.688;7.842;2023-03-21T03:27:39;12.60;;;5.50;;
78752;SDS011;68072;51.688;7.842;2023-03-21T03:30:06;11.93;;;6.68;;
78752;SDS011;68072;51.688;7.842;2023-03-21T03:32:41;11.18;;;5.72;;
78752;SDS011;68072;51.688;7.842;2023-03-21T03:35:10;14.93;;;4.88;;
78752;SDS011;68072;51.688;7.842;2023-03-21T03:37:37;17.73;;;6.47;;
78752;SDS011;68072;51.688;7.842;2023-03-21T03:40:15;11.68;;;6.53;;
78752;SDS011;68072;51.688;7.842;2023-03-21T03:42:47;13.68;;;5.95;;
78752;SDS011;68072;51.688;7.842;2023-03-21T03:45:14;11.75;;;6.00;;
78752;SDS011;68072;51.688;7.842;2023-03-21T03:47:50;13.75;;;6.50;;
78752;SDS011;68072;51.688;7.842;2023-03-21T03:50:37;16.80;;;7.68;;
78752;SDS011;68072;51.688;7.842;2023-03-21T03:55:48;15.88;;;7.22;;
78752;SDS011;68072;51.688;7.842;2023-03-21T03:58:18;17.52;;;6.25;;
78752;SDS011;68072;51.688;7.842;2023-03-21T04:00:44;12.43;;;6.88;;
78752;SDS011;68072;51.688;7.842;2023-03-21T04:03:10;12.60;;;6.35;;
78752;SDS011;68072;51.688;7.842;2023-03-21T04:05:36;17.08;;;6.97;;
78752;SDS011;68072;51.688;7.842;2023-03-21T04:08:02;15.55;;;6.40;;
78752;SDS011;68072;51.688;7.842;2023-03-21T04:10:27;11.80;;;5.28;;
78752;SDS011;68072;51.688;7.842;2023-03-21T04:12:53;16.55;;;7.53;;
78752;SDS011;68072;51.688;7.842;2023-03-21T04:15:18;12.93;;;6.57;;
78752;SDS011;68072;51.688;7.842;2023-03-21T04:17:44;11.50;;;6.07;;
78752;SDS011;68072;51.688;7.842;2023-03-21T04:20:10;12.45;;;6.43;;
78752;SDS011;68072;51.688;7.842;2023-03-21T04:22:36;12.13;;;6.00;;
78752;SDS011;68072;51.688;7.842;2023-03-21T04:25:02;15.95;;;6.93;;
78752;SDS011;68072;51.688;7.842;2023-03-21T04:27:29;11.75;;;5.70;;
78752;SDS011;68072;51.688;7.842;2023-03-21T04:29:56;13.05;;;6.75;;
78752;SDS011;68072;51.688;7.842;2023-03-21T04:32:22;15.30;;;7.10;;
78752;SDS011;68072;51.688;7.842;2023-03-21T04:34:50;16.30;;;6.88;;
78752;SDS011;68072;51.688;7.842;2023-03-21T04:37:18;13.27;;;6.65;;
78752;SDS011;68072;51.688;7.842;2023-03-21T04:39:44;12.93;;;7.00;;
78752;SDS011;68072;51.688;7.842;2023-03-21T04:42:11;16.83;;;6.75;;
78752;SDS011;68072;51.688;7.842;2023-03-21T04:44:38;17.50;;;7.07;;
78752;SDS011;68072;51.688;7.842;2023-03-21T04:47:04;14.02;;;6.43;;
78752;SDS011;68072;51.688;7.842;2023-03-21T04:49:30;12.77;;;6.78;;
78752;SDS011;68072;51.688;7.842;2023-03-21T04:51:56;13.20;;;6.20;;
78752;SDS011;68072;51.688;7.842;2023-03-21T04:54:21;14.98;;;7.13;;
78752;SDS011;68072;51.688;7.842;2023-03-21T04:56:47;14.45;;;6.63;;
78752;SDS011;68072;51.688;7.842;2023-03-21T04:59:13;11.38;;;6.05;;
78752;SDS011;68072;51.688;7.842;2023-03-21T05:01:39;15.70;;;6.80;;
78752;SDS011;68072;51.688;7.842;2023-03-21T05:04:05;12.75;;;6.72;;
78752;SDS011;68072;51.688;7.842;2023-03-21T05:06:31;9.90;;;6.50;;
78752;SDS011;68072;51.688;7.842;2023-03-21T05:08:57;13.75;;;6.93;;
78752;SDS011;68072;51.688;7.842;2023-03-21T05:11:29;15.13;;;7.00;;
78752;SDS011;68072;51.688;7.842;2023-03-21T05:13:56;16.58;;;7.18;;
78752;SDS011;68072;51.688;7.842;2023-03-21T05:18:51;18.98;;;6.93;;
78752;SDS011;68072;51.688;7.842;2023-03-21T05:21:18;15.45;;;6.88;;
78752;SDS011;68072;51.688;7.842;2023-03-21T05:23:44;12.82;;;6.90;;
78752;SDS011;68072;51.688;7.842;2023-03-21T05:26:10;16.45;;;6.93;;
78752;SDS011;68072;51.688;7.842;2023-03-21T05:28:36;13.27;;;6.75;;
78752;SDS011;68072;51.688;7.842;2023-03-21T05:31:04;13.90;;;7.35;;
78752;SDS011;68072;51.688;7.842;2023-03-21T05:33:32;13.60;;;6.40;;
78752;SDS011;68072;51.688;7.842;2023-03-21T05:35:58;11.27;;;6.43;;
78752;SDS011;68072;51.688;7.842;2023-03-21T05:38:23;14.32;;;8.13;;
78752;SDS011;68072;51.688;7.842;2023-03-21T05:40:50;17.75;;;6.55;;
78752;SDS011;68072;51.688;7.842;2023-03-21T05:43:16;12.82;;;6.95;;
78752;SDS011;68072;51.688;7.842;2023-03-21T05:45:41;16.52;;;7.13;;
78752;SDS011;68072;51.688;7.842;2023-03-21T05:48:07;16.08;;;7.50;;
78752;SDS011;68072;51.688;7.842;2023-03-21T05:50:32;14.38;;;7.22;;
78752;SDS011;68072;51.688;7.842;2023-03-21T05:52:58;16.05;;;7.45;;
78752;SDS011;68072;51.688;7.842;2023-03-21T05:55:23;15.48;;;6.82;;
78752;SDS011;68072;51.688;7.842;2023-03-21T05:57:48;14.43;;;6.82;;
78752;SDS011;68072;51.688;7.842;2023-03-21T06:00:14;16.02;;;7.63;;
78752;SDS011;68072;51.688;7.842;2023-03-21T06:02:40;17.52;;;7.22;;
78752;SDS011;68072;51.688;7.842;2023-03-21T06:05:06;14.45;;;7.10;;
78752;SDS011;68072;51.688;7.842;2023-03-21T06:07:32;15.85;;;7.20;;
78752;SDS011;68072;51.688;7.842;2023-03-21T06:10:01;19.35;;;7.55;;
78752;SDS011;68072;51.688;7.842;2023-03-21T06:12:27;16.90;;;6.93;;
78752;SDS011;68072;51.688;7.842;2023-03-21T06:14:52;14.48;;;6.45;;
78752;SDS011;68072;51.688;7.842;2023-03-21T06:17:18;10.98;;;6.63;;
78752;SDS011;68072;51.688;7.842;2023-03-21T06:19:43;17.35;;;5.45;;
78752;SDS011;68072;51.688;7.842;2023-03-21T06:22:09;16.52;;;7.25;;
78752;SDS011;68072;51.688;7.842;2023-03-21T06:24:34;15.23;;;6.95;;
78752;SDS011;68072;51.688;7.842;2023-03-21T06:27:00;14.38;;;6.82;;
78752;SDS011;68072;51.688;7.842;2023-03-21T06:29:25;15.48;;;7.00;;
78752;SDS011;68072;51.688;7.842;2023-03-21T06:31:51;18.98;;;6.82;;
78752;SDS011;68072;51.688;7.842;2023-03-21T06:34:16;15.50;;;6.50;;
78752;SDS011;68072;51.688;7.842;2023-03-21T06:36:41;13.73;;;6.53;;
78752;SDS011;68072;51.688;7.842;2023-03-21T06:39:08;19.67;;;7.20;;
78752;SDS011;68072;51.688;7.842;2023-03-21T06:41:34;14.77;;;7.78;;
78752;SDS011;68072;51.688;7.842;2023-03-21T06:44:00;16.60;;;6.30;;
78752;SDS011;68072;51.688;7.842;2023-03-21T06:46:25;12.00;;;6.07;;
78752;SDS011;68072;51.688;7.842;2023-03-21T06:48:51;17.30;;;7.25;;
78752;SDS011;68072;51.688;7.842;2023-03-21T06:51:16;16.40;;;6.70;;
78752;SDS011;68072;51.688;7.842;2023-03-21T06:53:42;14.70;;;6.40;;
78752;SDS011;68072;51.688;7.842;2023-03-21T06:58:34;15.57;;;6.47;;
78752;SDS011;68072;51.688;7.842;2023-03-21T07:01:00;15.20;;;5.45;;
78752;SDS011;68072;51.688;7.842;2023-03-21T07:03:27;15.60;;;7.15;;
78752;SDS011;68072;51.688;7.842;2023-03-21T07:05:53;13.68;;;7.03;;
78752;SDS011;68072;51.688;7.842;2023-03-21T07:08:18;12.98;;;6.75;;
78752;SDS011;68072;51.688;7.842;2023-03-21T07:10:44;13.65;;;6.72;;
78752;SDS011;68072;51.688;7.842;2023-03-21T07:13:10;12.95;;;5.95;;
78752;SDS011;68072;51.688;7.842;2023-03-21T07:15:36;20.63;;;7.47;;
78752;SDS011;68072;51.688;7.842;2023-03-21T07:18:06;16.63;;;6.68;;
78752;SDS011;68072;51.688;7.842;2023-03-21T07:20:32;17.05;;;6.90;;
78752;SDS011;68072;51.688;7.842;2023-03-21T07:22:58;13.65;;;7.22;;
78752;SDS011;68072;51.688;7.842;2023-03-21T07:25:23;18.63;;;6.82;;
78752;SDS011;68072;51.688;7.842;2023-03-21T07:27:49;16.85;;;6.60;;
78752;SDS011;68072;51.688;7.842;2023-03-21T07:30:14;13.63;;;6.65;;
78752;SDS011;68072;51.688;7.842;2023-03-21T07:32:40;21.02;;;7.38;;
78752;SDS011;68072;51.688;7.842;2023-03-21T07:35:06;19.08;;;6.97;;
78752;SDS011;68072;51.688;7.842;2023-03-21T07:37:33;17.80;;;7.03;;
78752;SDS011;68072;51.688;7.842;2023-03-21T07:39:58;20.58;;;6.90;;
78752;SDS011;68072;51.688;7.842;2023-03-21T07:42:23;16.92;;;7.15;;
78752;SDS011;68072;51.688;7.842;2023-03-21T07:44:49;15.13;;;7.55;;
78752;SDS011;68072;51.688;7.842;2023-03-21T07:47:15;20.90;;;7.78;;
78752;SDS011;68072;51.688;7.842;2023-03-21T07:49:40;16.23;;;7.60;;
78752;SDS011;68072;51.688;7.842;2023-03-21T07:52:06;16.50;;;7.57;;
78752;SDS011;68072;51.688;7.842;2023-03-21T07:54:32;13.70;;;7.00;;
78752;SDS011;68072;51.688;7.842;2023-03-21T07:56:57;17.60;;;7.75;;
78752;SDS011;68072;51.688;7.842;2023-03-21T07:59:23;21.20;;;7.93;;
78752;SDS011;68072;51.688;7.842;2023-03-21T08:01:48;21.10;;;6.82;;
78752;SDS011;68072;51.688;7.842;2023-03-21T08:04:14;18.60;;;7.35;;
78752;SDS011;68072;51.688;7.842;2023-03-21T08:06:39;24.83;;;8.98;;
78752;SDS011;68072;51.688;7.842;2023-03-21T08:09:05;20.63;;;8.13;;
78752;SDS011;68072;51.688;7.842;2023-03-21T08:11:30;21.35;;;8.05;;
78752;SDS011;68072;51.688;7.842;2023-03-21T08:13:56;16.85;;;7.45;;
78752;SDS011;68072;51.688;7.842;2023-03-21T08:16:22;21.23;;;8.10;;
78752;SDS011;68072;51.688;7.842;2023-03-21T08:18:48;21.38;;;7.18;;
78752;SDS011;68072;51.688;7.842;2023-03-21T08:21:14;17.23;;;7.07;;
78752;SDS011;68072;51.688;7.842;2023-03-21T08:23:40;17.35;;;7.88;;
78752;SDS011;68072;51.688;7.842;2023-03-21T08:26:05;28.13;;;8.45;;
78752;SDS011;68072;51.688;7.842;2023-03-21T08:28:31;19.70;;;8.40;;
78752;SDS011;68072;51.688;7.842;2023-03-21T08:30:57;17.50;;;8.05;;
78752;SDS011;68072;51.688;7.842;2023-03-21T08:33:22;15.75;;;7.60;;
78752;SDS011;68072;51.688;7.842;2023-03-21T08:35:48;20.30;;;8.50;;
78752;SDS011;68072;51.688;7.842;2023-03-21T08:38:14;22.23;;;7.90;;
78752;SDS011;68072;51.688;7.842;2023-03-21T08:40:39;15.93;;;7.07;;
78752;SDS011;68072;51.688;7.842;2023-03-21T08:43:05;18.75;;;8.13;;
78752;SDS011;68072;51.688;7.842;2023-03-21T08:45:30;18.20;;;6.93;;
78752;SDS011;68072;51.688;7.842;2023-03-21T08:47:56;17.13;;;8.07;;
78752;SDS011;68072;51.688;7.842;2023-03-21T08:50:22;19.42;;;7.78;;
78752;SDS011;68072;51.688;7.842;2023-03-21T08:52:49;16.85;;;6.78;;
78752;SDS011;68072;51.688;7.842;2023-03-21T08:55:15;24.20;;;8.02;;
78752;SDS011;68072;51.688;7.842;2023-03-21T09:00:07;19.15;;;7.60;;
78752;SDS011;68072;51.688;7.842;2023-03-21T09:02:38;20.75;;;8.10;;
78752;SDS011;68072;51.688;7.842;2023-03-21T09:05:05;17.52;;;8.07;;
78752;SDS011;68072;51.688;7.842;2023-03-21T09:07:31;23.52;;;7.00;;
78752;SDS011;68072;51.688;7.842;2023-03-21T09:10:00;13.80;;;6.80;;
78752;SDS011;68072;51.688;7.842;2023-03-21T09:12:29;14.98;;;7.80;;
78752;SDS011;68072;51.688;7.842;2023-03-21T09:14:54;18.35;;;7.32;;
78752;SDS011;68072;51.688;7.842;2023-03-21T09:17:20;19.33;;;6.22;;
78752;SDS011;68072;51.688;7.842;2023-03-21T09:19:45;18.35;;;7.10;;
78752;SDS011;68072;51.688;7.842;2023-03-21T09:22:11;14.13;;;6.90;;
78752;SDS011;68072;51.688;7.842;2023-03-21T09:24:38;14.40;;;6.35;;
78752;SDS011;68072;51.688;7.842;2023-03-21T09:27:06;13.23;;;6.35;;
78752;SDS011;68072;51.688;7.842;2023-03-21T09:29:31;14.10;;;5.95;;
78752;SDS011;68072;51.688;7.842;2023-03-21T09:31:58;11.38;;;5.75;;
78752;SDS011;68072;51.688;7.842;2023-03-21T09:34:23;17.25;;;6.47;;
78752;SDS011;68072;51.688;7.842;2023-03-21T09:39:18;12.55;;;6.38;;
78752;SDS011;68072;51.688;7.842;2023-03-21T09:41:54;14.07;;;6.95;;
78752;SDS011;68072;51.688;7.842;2023-03-21T09:49:46;12.05;;;6.10;;
78752;SDS011;68072;51.688;7.842;2023-03-21T09:55:18;14.25;;;4.57;;
78752;SDS011;68072;51.688;7.842;2023-03-21T09:57:47;18.38;;;6.35;;
78752;SDS011;68072;51.688;7.842;2023-03-21T10:00:38;14.25;;;6.45;;
78752;SDS011;68072;51.688;7.842;2023-03-21T10:03:10;15.30;;;5.97;;
78752;SDS011;68072;51.688;7.842;2023-03-21T10:05:53;12.23;;;5.80;;
78752;SDS011;68072;51.688;7.842;2023-03-21T10:08:30;15.52;;;7.15;;
78752;SDS011;68072;51.688;7.842;2023-03-21T10:11:11;10.60;;;6.00;;
78752;SDS011;68072;51.688;7.842;2023-03-21T10:13:40;20.05;;;7.35;;
78752;SDS011;68072;51.688;7.842;2023-03-21T10:16:12;14.30;;;7.05;;
78752;SDS011;68072;51.688;7.842;2023-03-21T10:18:40;15.45;;;6.90;;
78752;SDS011;68072;51.688;7.842;2023-03-21T10:21:07;17.00;;;5.68;;
78752;SDS011;68072;51.688;7.842;2023-03-21T10:23:38;8.50;;;5.18;;
78752;SDS011;68072;51.688;7.842;2023-03-21T10:26:04;13.65;;;7.05;;
78752;SDS011;68072;51.688;7.842;2023-03-21T10:28:34;16.60;;;7.05;;
78752;SDS011;68072;51.688;7.842;2023-03-21T10:31:02;16.25;;;6.72;;
78752;SDS011;68072;51.688;7.842;2023-03-21T10:33:34;15.85;;;6.97;;
78752;SDS011;68072;51.688;7.842;2023-03-21T10:36:02;13.48;;;6.68;;
78752;SDS011;68072;51.688;7.842;2023-03-21T10:38:30;16.40;;;6.88;;
78752;SDS011;68072;51.688;7.842;2023-03-21T10:40:55;13.02;;;6.05;;
78752;SDS011;68072;51.688;7.842;2023-03-21T10:45:57;9.70;;;5.43;;
78752;SDS011;68072;51.688;7.842;2023-03-21T10:48:23;10.75;;;5.88;;
78752;SDS011;68072;51.688;7.842;2023-03-21T10:50:51;13.95;;;6.10;;
78752;SDS011;68072;51.688;7.842;2023-03-21T10:53:19;12.75;;;5.82;;
78752;SDS011;68072;51.688;7.842;2023-03-21T10:55:47;16.45;;;6.65;;
78752;SDS011;68072;51.688;7.842;2023-03-21T10:58:19;17.00;;;6.60;;
78752;SDS011;68072;51.688;7.842;2023-03-21T11:00:49;18.42;;;7.38;;
78752;SDS011;68072;51.688;7.842;2023-03-21T11:03:26;8.88;;;4.65;;
78752;SDS011;68072;51.688;7.842;2023-03-21T11:05:55;12.68;;;5.03;;
78752;SDS011;68072;51.688;7.842;2023-03-21T11:08:26;13.23;;;5.95;;
78752;SDS011;68072;51.688;7.842;2023-03-21T11:11:06;11.80;;;5.78;;
78752;SDS011;68072;51.688;7.842;2023-03-21T11:13:41;16.58;;;6.20;;
78752;SDS011;68072;51.688;7.842;2023-03-21T11:16:09;11.95;;;5.13;;
78752;SDS011;68072;51.688;7.842;2023-03-21T11:18:49;14.30;;;5.97;;
78752;SDS011;68072;51.688;7.842;2023-03-21T11:21:16;17.65;;;5.43;;
78752;SDS011;68072;51.688;7.842;2023-03-21T11:23:46;15.82;;;5.43;;
78752;SDS011;68072;51.688;7.842;2023-03-21T11:26:21;12.20;;;5.75;;
78752;SDS011;68072;51.688;7.842;2023-03-21T11:28:56;9.63;;;4.80;;
78752;SDS011;68072;51.688;7.842;2023-03-21T11:31:23;11.40;;;5.05;;
78752;SDS011;68072;51.688;7.842;2023-03-21T11:34:03;9.27;;;4.47;;
78752;SDS011;68072;51.688;7.842;2023-03-21T11:36:34;8.88;;;3.95;;
78752;SDS011;68072;51.688;7.842;2023-03-21T11:41:33;5.95;;;3.60;;
78752;SDS011;68072;51.688;7.842;2023-03-21T11:43:59;6.28;;;4.18;;
78752;SDS011;68072;51.688;7.842;2023-03-21T11:46:27;9.52;;;4.57;;
78752;SDS011;68072;51.688;7.842;2023-03-21T11:48:54;8.40;;;4.05;;
78752;SDS011;68072;51.688;7.842;2023-03-21T11:57:52;8.85;;;4.55;;
78752;SDS011;68072;51.688;7.842;2023-03-21T12:05:35;6.32;;;3.92;;
78752;SDS011;68072;51.688;7.842;2023-03-21T12:14:02;10.15;;;4.88;;
78752;SDS011;68072;51.688;7.842;2023-03-21T12:19:12;9.20;;;4.47;;
78752;SDS011;68072;51.688;7.842;2023-03-21T12:27:10;7.75;;;4.25;;
78752;SDS011;68072;51.688;7.842;2023-03-21T12:29:44;8.18;;;4.43;;
78752;SDS011;68072;51.688;7.842;2023-03-21T12:41:27;10.43;;;4.45;;
78752;SDS011;68072;51.688;7.842;2023-03-21T12:43:43;5.90;;;3.47;;
78752;SDS011;68072;51.688;7.842;2023-03-21T12:48:57;8.15;;;4.05;;
78752;SDS011;68072;51.688;7.842;2023-03-21T12:51:26;7.03;;;3.30;;
78752;SDS011;68072;51.688;7.842;2023-03-21T12:56:47;8.23;;;3.72;;
78752;SDS011;68072;51.688;7.842;2023-03-21T12:59:21;8.27;;;3.33;;
78752;SDS011;68072;51.688;7.842;2023-03-21T13:01:50;6.97;;;3.58;;
78752;SDS011;68072;51.688;7.842;2023-03-21T13:06:57;8.52;;;3.47;;
78752;SDS011;68072;51.688;7.842;2023-03-21T13:12:18;5.57;;;3.40;;
78752;SDS011;68072;51.688;7.842;2023-03-21T13:17:40;4.75;;;2.72;;
78752;SDS011;68072;51.688;7.842;2023-03-21T13:22:47;4.88;;;2.08;;
78752;SDS011;68072;51.688;7.842;2023-03-21T13:25:17;6.55;;;2.45;;
78752;SDS011;68072;51.688;7.842;2023-03-21T13:27:53;8.82;;;2.40;;
78752;SDS011;68072;51.688;7.842;2023-03-21T13:30:25;4.10;;;2.28;;
78752;SDS011;68072;51.688;7.842;2023-03-21T13:35:32;5.78;;;2.00;;
78752;SDS011;68072;51.688;7.842;2023-03-21T13:38:13;4.65;;;2.05;;
78752;SDS011;68072;51.688;7.842;2023-03-21T13:40:42;2.88;;;1.85;;
78752;SDS011;68072;51.688;7.842;2023-03-21T13:56:27;2.05;;;1.85;;
78752;SDS011;68072;51.688;7.842;2023-03-21T13:59:03;5.10;;;2.10;;
78752;SDS011;68072;51.688;7.842;2023-03-21T14:04:21;3.08;;;1.75;;
78752;SDS011;68072;51.688;7.842;2023-03-21T14:06:55;2.60;;;1.88;;
78752;SDS011;68072;51.688;7.842;2023-03-21T14:09:33;4.60;;;2.13;;
78752;SDS011;68072;51.688;7.842;2023-03-21T14:12:00;3.67;;;2.10;;
78752;SDS011;68072;51.688;7.842;2023-03-21T14:14:29;3.08;;;2.10;;
78752;SDS011;68072;51.688;7.842;2023-03-21T14:16:57;3.80;;;2.10;;
78752;SDS011;68072;51.688;7.842;2023-03-21T14:19:32;4.15;;;1.98;;
78752;SDS011;68072;51.688;7.842;2023-03-21T14:21:57;3.13;;;1.80;;
78752;SDS011;68072;51.688;7.842;2023-03-21T14:24:23;2.08;;;1.67;;
78752;SDS011;68072;51.688;7.842;2023-03-21T14:26:49;2.45;;;2.00;;
78752;SDS011;68072;51.688;7.842;2023-03-21T14:29:19;3.58;;;1.83;;
78752;SDS011;68072;51.688;7.842;2023-03-21T14:31:47;3.45;;;2.00;;
78752;SDS011;68072;51.688;7.842;2023-03-21T14:34:13;3.50;;;1.80;;
78752;SDS011;68072;51.688;7.842;2023-03-21T14:36:40;3.10;;;1.73;;
78752;SDS011;68072;51.688;7.842;2023-03-21T14:39:09;3.72;;;1.70;;
78752;SDS011;68072;51.688;7.842;2023-03-21T14:41:45;5.68;;;2.30;;
78752;SDS011;68072;51.688;7.842;2023-03-21T14:44:21;3.08;;;2.08;;
78752;SDS011;68072;51.688;7.842;2023-03-21T14:49:27;4.85;;;2.30;;
78752;SDS011;68072;51.688;7.842;2023-03-21T14:52:00;1.90;;;1.70;;
78752;SDS011;68072;51.688;7.842;2023-03-21T14:54:27;1.98;;;1.80;;
78752;SDS011;68072;51.688;7.842;2023-03-21T14:56:56;1.73;;;1.63;;
78752;SDS011;68072;51.688;7.842;2023-03-21T14:59:24;2.22;;;1.85;;
78752;SDS011;68072;51.688;7.842;2023-03-21T15:01:51;2.33;;;1.75;;
78752;SDS011;68072;51.688;7.842;2023-03-21T15:04:18;3.25;;;2.10;;
78752;SDS011;68072;51.688;7.842;2023-03-21T15:06:49;4.00;;;1.60;;
78752;SDS011;68072;51.688;7.842;2023-03-21T15:09:16;3.13;;;1.80;;
78752;SDS011;68072;51.688;7.842;2023-03-21T15:11:42;1.98;;;1.60;;
78752;SDS011;68072;51.688;7.842;2023-03-21T15:14:08;2.95;;;1.70;;
78752;SDS011;68072;51.688;7.842;2023-03-21T15:16:36;4.00;;;1.75;;
78752;SDS011;68072;51.688;7.842;2023-03-21T15:19:03;2.17;;;1.80;;
78752;SDS011;68072;51.688;7.842;2023-03-21T15:21:34;2.15;;;1.70;;
78752;SDS011;68072;51.688;7.842;2023-03-21T15:24:10;2.45;;;1.50;;
78752;SDS011;68072;51.688;7.842;2023-03-21T15:26:42;1.63;;;1.52;;
78752;SDS011;68072;51.688;7.842;2023-03-21T15:29:09;2.47;;;1.80;;
78752;SDS011;68072;51.688;7.842;2023-03-21T15:31:35;6.25;;;2.13;;
78752;SDS011;68072;51.688;7.842;2023-03-21T15:34:03;3.17;;;1.80;;
78752;SDS011;68072;51.688;7.842;2023-03-21T15:39:06;5.03;;;1.63;;
78752;SDS011;68072;51.688;7.842;2023-03-21T15:41:33;2.20;;;1.55;;
78752;SDS011;68072;51.688;7.842;2023-03-21T15:46:41;2.53;;;1.60;;
78752;SDS011;68072;51.688;7.842;2023-03-21T15:51:47;2.90;;;1.90;;
78752;SDS011;68072;51.688;7.842;2023-03-21T15:54:20;1.83;;;1.73;;
78752;SDS011;68072;51.688;7.842;2023-03-21T15:56:58;5.78;;;1.80;;
78752;SDS011;68072;51.688;7.842;2023-03-21T15:59:29;2.60;;;2.03;;
78752;SDS011;68072;51.688;7.842;2023-03-21T16:01:57;4.15;;;1.98;;
78752;SDS011;68072;51.688;7.842;2023-03-21T16:04:23;3.67;;;2.15;;
78752;SDS011;68072;51.688;7.842;2023-03-21T16:07:00;2.40;;;1.90;;
78752;SDS011;68072;51.688;7.842;2023-03-21T16:09:37;2.45;;;1.77;;
78752;SDS011;68072;51.688;7.842;2023-03-21T16:12:08;2.67;;;1.80;;
78752;SDS011;68072;51.688;7.842;2023-03-21T16:14:35;2.80;;;2.13;;
78752;SDS011;68072;51.688;7.842;2023-03-21T16:17:00;2.38;;;1.98;;
78752;SDS011;68072;51.688;7.842;2023-03-21T16:19:26;1.92;;;1.70;;
78752;SDS011;68072;51.688;7.842;2023-03-21T16:21:53;3.30;;;1.83;;
78752;SDS011;68072;51.688;7.842;2023-03-21T16:24:19;2.83;;;1.77;;
78752;SDS011;68072;51.688;7.842;2023-03-21T16:26:45;1.83;;;1.70;;
78752;SDS011;68072;51.688;7.842;2023-03-21T16:29:14;3.40;;;1.90;;
78752;SDS011;68072;51.688;7.842;2023-03-21T16:31:41;4.53;;;2.30;;
78752;SDS011;68072;51.688;7.842;2023-03-21T16:34:08;4.03;;;2.22;;
78752;SDS011;68072;51.688;7.842;2023-03-21T16:36:35;2.13;;;1.92;;
78752;SDS011;68072;51.688;7.842;2023-03-21T16:39:16;2.38;;;2.05;;
78752;SDS011;68072;51.688;7.842;2023-03-21T16:41:45;4.05;;;2.00;;
78752;SDS011;68072;51.688;7.842;2023-03-21T16:44:11;5.10;;;2.00;;
78752;SDS011;68072;51.688;7.842;2023-03-21T16:46:36;2.80;;;2.05;;
78752;SDS011;68072;51.688;7.842;2023-03-21T16:49:02;3.60;;;2.20;;
78752;SDS011;68072;51.688;7.842;2023-03-21T16:51:32;3.83;;;2.10;;
78752;SDS011;68072;51.688;7.842;2023-03-21T16:53:59;4.40;;;2.20;;
78752;SDS011;68072;51.688;7.842;2023-03-21T16:56:25;3.30;;;2.42;;
78752;SDS011;68072;51.688;7.842;2023-03-21T16:58:56;3.10;;;2.15;;